66NY weather

Maple Ridge Airport
Medina, New York, United States

Public forecast

Using degrees Fahrenheit for public forecast. Weather courtesy of forecast.io.

Closest aviation weather report (METAR) to Maple Ridge Airport

Closest report is Buffalo Niagara International Airport, 22.9 nm (42.4 km) SW. Retrieved 2020/07/07 01:54 UTC (43 minutes ago):

KBUF 070154Z 06003KT 10SM FEW280 27/16 A3001 RMK AO2 SLP157 T02720156

Closest aviation forecast (TAF) to Maple Ridge Airport

Closest forecast is Buffalo Niagara International Airport, 22.9 nm (42.4 km) SW. Retrieved 2020-07-07 00:33 UTC (2 hours ago):

TAF KBUF 062331Z 0700/0724 06009KT P6SM FEW060 FM070100 10006KT P6SM FEW200 FM070900 18004KT P6SM FEW250 FM071300 21004KT P6SM FEW250 FM071800 23010G16KT P6SM FEW250